Talmage, Kansas
Current Conditions -  °F | °C
As of 9:53 PM on Saturday 22 Nov 2014 (Local Time) from KSLN Reporting Station
Few Clouds Few Clouds  
Wind Chill: 56°   Ceiling: Unl
Heat Index: 56°   Visibility: 10mi
Dew Point: 51°   Wind: 18mph
Humidity: 84%   Direction: 190°S
Pressure: 29.61"   Gusts: 28mph
Location:  39.03°N, 97.26°W
Report Text: KSLN 230353Z 19016G24KT 10SM FEW015 13/11 A2961 RMK AO2 SLP024 T01330106
Loading
Personal Weather Stations






























Interactive Weather Map New forecast layout! Learn more

10-Day Weather Forecast

Advertisements
Track Severe Weather on mobile